sensor_id;sensor_type;location;lat;lon;timestamp;P1;durP1;ratioP1;P2;durP2;ratioP2
1811;SDS011;904;47.814;11.134;2023-03-14T00:01:19;1.75;;;0.70;;
1811;SDS011;904;47.814;11.134;2023-03-14T00:03:48;2.42;;;0.80;;
1811;SDS011;904;47.814;11.134;2023-03-14T00:06:16;1.80;;;0.90;;
1811;SDS011;904;47.814;11.134;2023-03-14T00:08:50;2.05;;;0.90;;
1811;SDS011;904;47.814;11.134;2023-03-14T00:11:20;1.60;;;0.68;;
1811;SDS011;904;47.814;11.134;2023-03-14T00:13:48;3.08;;;0.80;;
1811;SDS011;904;47.814;11.134;2023-03-14T00:16:16;1.90;;;0.80;;
1811;SDS011;904;47.814;11.134;2023-03-14T00:18:43;1.90;;;0.80;;
1811;SDS011;904;47.814;11.134;2023-03-14T00:21:12;1.73;;;0.70;;
1811;SDS011;904;47.814;11.134;2023-03-14T00:23:40;1.60;;;0.65;;
1811;SDS011;904;47.814;11.134;2023-03-14T00:26:09;1.83;;;0.88;;
1811;SDS011;904;47.814;11.134;2023-03-14T00:28:37;2.15;;;0.80;;
1811;SDS011;904;47.814;11.134;2023-03-14T00:31:06;1.60;;;0.60;;
1811;SDS011;904;47.814;11.134;2023-03-14T00:33:40;1.63;;;0.70;;
1811;SDS011;904;47.814;11.134;2023-03-14T00:36:08;2.70;;;0.70;;
1811;SDS011;904;47.814;11.134;2023-03-14T00:38:44;2.22;;;0.80;;
1811;SDS011;904;47.814;11.134;2023-03-14T00:41:13;1.70;;;0.68;;
1811;SDS011;904;47.814;11.134;2023-03-14T00:43:41;1.60;;;0.70;;
1811;SDS011;904;47.814;11.134;2023-03-14T00:46:09;1.70;;;0.70;;
1811;SDS011;904;47.814;11.134;2023-03-14T00:48:36;2.22;;;0.90;;
1811;SDS011;904;47.814;11.134;2023-03-14T00:51:05;1.90;;;0.80;;
1811;SDS011;904;47.814;11.134;2023-03-14T00:53:36;1.90;;;0.70;;
1811;SDS011;904;47.814;11.134;2023-03-14T00:56:05;1.85;;;0.90;;
1811;SDS011;904;47.814;11.134;2023-03-14T00:58:34;1.60;;;0.70;;
1811;SDS011;904;47.814;11.134;2023-03-14T01:01:04;2.28;;;0.80;;
1811;SDS011;904;47.814;11.134;2023-03-14T01:03:33;1.70;;;0.90;;
1811;SDS011;904;47.814;11.134;2023-03-14T01:06:08;1.90;;;0.65;;
1811;SDS011;904;47.814;11.134;2023-03-14T01:08:38;1.80;;;0.80;;
1811;SDS011;904;47.814;11.134;2023-03-14T01:11:06;1.75;;;0.85;;
1811;SDS011;904;47.814;11.134;2023-03-14T01:13:40;2.00;;;0.90;;
1811;SDS011;904;47.814;11.134;2023-03-14T01:16:08;2.45;;;0.90;;
1811;SDS011;904;47.814;11.134;2023-03-14T01:18:38;1.80;;;0.80;;
1811;SDS011;904;47.814;11.134;2023-03-14T01:21:09;2.28;;;0.98;;
1811;SDS011;904;47.814;11.134;2023-03-14T01:23:40;3.15;;;1.40;;
1811;SDS011;904;47.814;11.134;2023-03-14T01:26:09;2.40;;;0.90;;
1811;SDS011;904;47.814;11.134;2023-03-14T01:28:37;2.30;;;1.02;;
1811;SDS011;904;47.814;11.134;2023-03-14T01:31:05;2.80;;;1.00;;
1811;SDS011;904;47.814;11.134;2023-03-14T01:33:34;3.00;;;1.02;;
1811;SDS011;904;47.814;11.134;2023-03-14T01:36:01;3.55;;;1.30;;
1811;SDS011;904;47.814;11.134;2023-03-14T01:38:29;3.95;;;1.60;;
1811;SDS011;904;47.814;11.134;2023-03-14T01:40:57;2.40;;;1.15;;
1811;SDS011;904;47.814;11.134;2023-03-14T01:43:25;3.15;;;1.00;;
1811;SDS011;904;47.814;11.134;2023-03-14T01:49:01;2.13;;;1.23;;
1811;SDS011;904;47.814;11.134;2023-03-14T01:51:33;1.80;;;0.80;;
1811;SDS011;904;47.814;11.134;2023-03-14T01:54:08;1.77;;;0.80;;
1811;SDS011;904;47.814;11.134;2023-03-14T01:56:42;1.75;;;0.80;;
1811;SDS011;904;47.814;11.134;2023-03-14T01:59:14;3.63;;;0.93;;
1811;SDS011;904;47.814;11.134;2023-03-14T02:01:47;2.00;;;0.80;;
1811;SDS011;904;47.814;11.134;2023-03-14T02:04:17;3.15;;;0.90;;
1811;SDS011;904;47.814;11.134;2023-03-14T02:06:49;2.97;;;0.90;;
1811;SDS011;904;47.814;11.134;2023-03-14T02:09:20;2.35;;;0.80;;
1811;SDS011;904;47.814;11.134;2023-03-14T02:11:53;1.80;;;0.75;;
1811;SDS011;904;47.814;11.134;2023-03-14T02:14:26;2.47;;;0.70;;
1811;SDS011;904;47.814;11.134;2023-03-14T02:16:57;2.13;;;0.60;;
1811;SDS011;904;47.814;11.134;2023-03-14T02:19:27;1.50;;;0.50;;
1811;SDS011;904;47.814;11.134;2023-03-14T02:22:02;1.70;;;0.70;;
1811;SDS011;904;47.814;11.134;2023-03-14T02:24:35;1.70;;;0.80;;
1811;SDS011;904;47.814;11.134;2023-03-14T02:27:13;2.28;;;0.70;;
1811;SDS011;904;47.814;11.134;2023-03-14T02:29:44;1.60;;;0.63;;
1811;SDS011;904;47.814;11.134;2023-03-14T02:32:17;2.50;;;0.70;;
1811;SDS011;904;47.814;11.134;2023-03-14T02:34:46;2.80;;;0.75;;
1811;SDS011;904;47.814;11.134;2023-03-14T02:37:19;1.60;;;0.60;;
1811;SDS011;904;47.814;11.134;2023-03-14T02:39:48;1.70;;;0.68;;
1811;SDS011;904;47.814;11.134;2023-03-14T02:42:17;1.98;;;0.70;;
1811;SDS011;904;47.814;11.134;2023-03-14T02:44:51;3.38;;;1.58;;
1811;SDS011;904;47.814;11.134;2023-03-14T02:47:22;1.50;;;0.70;;
1811;SDS011;904;47.814;11.134;2023-03-14T02:49:56;1.60;;;0.60;;
1811;SDS011;904;47.814;11.134;2023-03-14T02:52:28;1.60;;;0.70;;
1811;SDS011;904;47.814;11.134;2023-03-14T02:54:55;1.50;;;0.52;;
1811;SDS011;904;47.814;11.134;2023-03-14T02:57:23;1.90;;;0.60;;
1811;SDS011;904;47.814;11.134;2023-03-14T02:59:51;1.60;;;0.60;;
1811;SDS011;904;47.814;11.134;2023-03-14T03:02:18;1.50;;;0.50;;
1811;SDS011;904;47.814;11.134;2023-03-14T03:04:51;1.50;;;0.60;;
1811;SDS011;904;47.814;11.134;2023-03-14T03:07:19;1.92;;;0.50;;
1811;SDS011;904;47.814;11.134;2023-03-14T03:09:47;1.50;;;0.50;;
1811;SDS011;904;47.814;11.134;2023-03-14T03:12:14;1.50;;;0.50;;
1811;SDS011;904;47.814;11.134;2023-03-14T03:14:43;2.13;;;0.50;;
1811;SDS011;904;47.814;11.134;2023-03-14T03:17:10;1.50;;;0.60;;
1811;SDS011;904;47.814;11.134;2023-03-14T03:19:37;1.75;;;0.60;;
1811;SDS011;904;47.814;11.134;2023-03-14T03:22:04;1.70;;;0.60;;
1811;SDS011;904;47.814;11.134;2023-03-14T03:24:31;3.05;;;0.82;;
1811;SDS011;904;47.814;11.134;2023-03-14T03:27:03;2.90;;;1.02;;
1811;SDS011;904;47.814;11.134;2023-03-14T03:29:30;1.95;;;0.90;;
1811;SDS011;904;47.814;11.134;2023-03-14T03:32:03;2.53;;;1.40;;
1811;SDS011;904;47.814;11.134;2023-03-14T03:34:30;6.88;;;0.70;;
1811;SDS011;904;47.814;11.134;2023-03-14T03:36:57;7.53;;;2.92;;
1811;SDS011;904;47.814;11.134;2023-03-14T03:39:24;2.88;;;1.00;;
1811;SDS011;904;47.814;11.134;2023-03-14T03:41:52;1.70;;;0.80;;
1811;SDS011;904;47.814;11.134;2023-03-14T03:44:19;1.55;;;0.57;;
1811;SDS011;904;47.814;11.134;2023-03-14T03:46:46;1.60;;;0.60;;
1811;SDS011;904;47.814;11.134;2023-03-14T03:49:15;2.20;;;0.93;;
1811;SDS011;904;47.814;11.134;2023-03-14T03:51:42;1.50;;;0.55;;
1811;SDS011;904;47.814;11.134;2023-03-14T03:54:13;1.80;;;0.70;;
1811;SDS011;904;47.814;11.134;2023-03-14T03:56:40;1.60;;;0.70;;
1811;SDS011;904;47.814;11.134;2023-03-14T03:59:08;7.05;;;0.70;;
1811;SDS011;904;47.814;11.134;2023-03-14T04:01:35;1.48;;;0.50;;
1811;SDS011;904;47.814;11.134;2023-03-14T04:04:02;1.75;;;0.50;;
1811;SDS011;904;47.814;11.134;2023-03-14T04:06:30;1.50;;;0.50;;
1811;SDS011;904;47.814;11.134;2023-03-14T04:08:57;1.50;;;0.50;;
1811;SDS011;904;47.814;11.134;2023-03-14T04:11:25;3.45;;;0.50;;
1811;SDS011;904;47.814;11.134;2023-03-14T04:13:52;1.48;;;0.50;;
1811;SDS011;904;47.814;11.134;2023-03-14T04:16:24;1.50;;;0.50;;
1811;SDS011;904;47.814;11.134;2023-03-14T04:18:52;1.50;;;0.50;;
1811;SDS011;904;47.814;11.134;2023-03-14T04:21:19;1.48;;;0.50;;
1811;SDS011;904;47.814;11.134;2023-03-14T04:23:53;1.50;;;0.60;;
1811;SDS011;904;47.814;11.134;2023-03-14T04:26:20;1.65;;;0.55;;
1811;SDS011;904;47.814;11.134;2023-03-14T04:28:48;1.50;;;0.50;;
1811;SDS011;904;47.814;11.134;2023-03-14T04:31:15;1.50;;;0.50;;
1811;SDS011;904;47.814;11.134;2023-03-14T04:33:44;1.60;;;0.70;;
1811;SDS011;904;47.814;11.134;2023-03-14T04:36:12;1.70;;;0.70;;
1811;SDS011;904;47.814;11.134;2023-03-14T04:38:40;1.50;;;0.60;;
1811;SDS011;904;47.814;11.134;2023-03-14T04:41:08;1.50;;;0.60;;
1811;SDS011;904;47.814;11.134;2023-03-14T04:43:35;2.80;;;0.80;;
1811;SDS011;904;47.814;11.134;2023-03-14T04:46:03;2.05;;;0.90;;
1811;SDS011;904;47.814;11.134;2023-03-14T04:48:30;1.88;;;0.70;;
1811;SDS011;904;47.814;11.134;2023-03-14T04:50:57;1.60;;;0.50;;
1811;SDS011;904;47.814;11.134;2023-03-14T04:53:24;2.53;;;0.60;;
1811;SDS011;904;47.814;11.134;2023-03-14T04:55:52;1.50;;;0.60;;
1811;SDS011;904;47.814;11.134;2023-03-14T04:58:22;2.40;;;0.60;;
1811;SDS011;904;47.814;11.134;2023-03-14T05:00:50;2.13;;;1.00;;
1811;SDS011;904;47.814;11.134;2023-03-14T05:03:17;2.45;;;1.33;;
1811;SDS011;904;47.814;11.134;2023-03-14T05:05:45;2.05;;;1.00;;
1811;SDS011;904;47.814;11.134;2023-03-14T05:08:12;2.00;;;0.70;;
1811;SDS011;904;47.814;11.134;2023-03-14T05:10:39;1.80;;;0.80;;
1811;SDS011;904;47.814;11.134;2023-03-14T05:13:07;1.60;;;0.70;;
1811;SDS011;904;47.814;11.134;2023-03-14T05:15:35;1.70;;;0.90;;
1811;SDS011;904;47.814;11.134;2023-03-14T05:18:02;2.05;;;1.02;;
1811;SDS011;904;47.814;11.134;2023-03-14T05:20:34;3.25;;;1.20;;
1811;SDS011;904;47.814;11.134;2023-03-14T05:23:02;1.80;;;0.90;;
1811;SDS011;904;47.814;11.134;2023-03-14T05:25:29;1.70;;;0.70;;
1811;SDS011;904;47.814;11.134;2023-03-14T05:27:57;1.92;;;0.68;;
1811;SDS011;904;47.814;11.134;2023-03-14T05:30:24;1.70;;;0.80;;
1811;SDS011;904;47.814;11.134;2023-03-14T05:32:52;1.70;;;0.90;;
1811;SDS011;904;47.814;11.134;2023-03-14T05:35:19;1.60;;;0.65;;
1811;SDS011;904;47.814;11.134;2023-03-14T05:37:48;1.83;;;0.80;;
1811;SDS011;904;47.814;11.134;2023-03-14T05:40:18;2.05;;;1.08;;
1811;SDS011;904;47.814;11.134;2023-03-14T05:42:45;2.08;;;1.00;;
1811;SDS011;904;47.814;11.134;2023-03-14T05:45:12;2.55;;;1.02;;
1811;SDS011;904;47.814;11.134;2023-03-14T05:47:39;2.50;;;1.15;;
1811;SDS011;904;47.814;11.134;2023-03-14T05:50:08;3.55;;;1.30;;
1811;SDS011;904;47.814;11.134;2023-03-14T05:52:36;2.33;;;1.10;;
1811;SDS011;904;47.814;11.134;2023-03-14T05:55:03;2.10;;;1.10;;
1811;SDS011;904;47.814;11.134;2023-03-14T05:57:31;2.05;;;0.90;;
1811;SDS011;904;47.814;11.134;2023-03-14T05:59:58;2.33;;;1.15;;
1811;SDS011;904;47.814;11.134;2023-03-14T06:02:25;2.58;;;1.30;;
1811;SDS011;904;47.814;11.134;2023-03-14T06:04:52;2.42;;;1.40;;
1811;SDS011;904;47.814;11.134;2023-03-14T06:07:26;3.58;;;2.03;;
1811;SDS011;904;47.814;11.134;2023-03-14T06:09:53;4.18;;;2.60;;
1811;SDS011;904;47.814;11.134;2023-03-14T06:12:22;4.70;;;2.53;;
1811;SDS011;904;47.814;11.134;2023-03-14T06:14:49;5.25;;;2.80;;
1811;SDS011;904;47.814;11.134;2023-03-14T06:17:16;3.85;;;2.63;;
1811;SDS011;904;47.814;11.134;2023-03-14T06:19:46;5.32;;;2.40;;
1811;SDS011;904;47.814;11.134;2023-03-14T06:22:13;3.58;;;2.00;;
1811;SDS011;904;47.814;11.134;2023-03-14T06:24:42;3.40;;;2.13;;
1811;SDS011;904;47.814;11.134;2023-03-14T06:27:10;5.80;;;3.25;;
1811;SDS011;904;47.814;11.134;2023-03-14T06:29:37;4.35;;;2.80;;
1811;SDS011;904;47.814;11.134;2023-03-14T06:32:05;4.15;;;2.58;;
1811;SDS011;904;47.814;11.134;2023-03-14T06:34:32;6.05;;;4.03;;
1811;SDS011;904;47.814;11.134;2023-03-14T06:36:59;6.45;;;4.00;;
1811;SDS011;904;47.814;11.134;2023-03-14T06:39:26;4.68;;;2.90;;
1811;SDS011;904;47.814;11.134;2023-03-14T06:41:55;3.30;;;2.17;;
1811;SDS011;904;47.814;11.134;2023-03-14T06:44:22;3.03;;;1.92;;
1811;SDS011;904;47.814;11.134;2023-03-14T06:46:49;3.28;;;2.15;;
1811;SDS011;904;47.814;11.134;2023-03-14T06:49:15;3.15;;;1.80;;
1811;SDS011;904;47.814;11.134;2023-03-14T06:51:42;1.77;;;0.95;;
1811;SDS011;904;47.814;11.134;2023-03-14T06:54:09;2.47;;;1.10;;
1811;SDS011;904;47.814;11.134;2023-03-14T06:56:38;2.13;;;1.30;;
1811;SDS011;904;47.814;11.134;2023-03-14T06:59:07;2.28;;;1.20;;
1811;SDS011;904;47.814;11.134;2023-03-14T07:01:34;2.10;;;1.38;;
1811;SDS011;904;47.814;11.134;2023-03-14T07:04:01;3.35;;;1.70;;
1811;SDS011;904;47.814;11.134;2023-03-14T07:06:28;3.30;;;1.70;;
1811;SDS011;904;47.814;11.134;2023-03-14T07:08:55;3.00;;;1.45;;
1811;SDS011;904;47.814;11.134;2023-03-14T07:11:22;2.72;;;1.38;;
1811;SDS011;904;47.814;11.134;2023-03-14T07:13:49;2.35;;;1.40;;
1811;SDS011;904;47.814;11.134;2023-03-14T07:16:18;2.80;;;1.50;;
1811;SDS011;904;47.814;11.134;2023-03-14T07:18:45;2.38;;;1.25;;
1811;SDS011;904;47.814;11.134;2023-03-14T07:21:12;3.00;;;1.35;;
1811;SDS011;904;47.814;11.134;2023-03-14T07:23:39;3.33;;;1.50;;
1811;SDS011;904;47.814;11.134;2023-03-14T07:26:06;3.35;;;1.48;;
1811;SDS011;904;47.814;11.134;2023-03-14T07:28:34;3.67;;;1.60;;
1811;SDS011;904;47.814;11.134;2023-03-14T07:31:00;6.38;;;3.00;;
1811;SDS011;904;47.814;11.134;2023-03-14T07:33:29;3.00;;;2.10;;
1811;SDS011;904;47.814;11.134;2023-03-14T07:35:56;2.80;;;1.58;;
1811;SDS011;904;47.814;11.134;2023-03-14T07:38:22;5.75;;;1.92;;
1811;SDS011;904;47.814;11.134;2023-03-14T07:40:50;3.70;;;2.10;;
1811;SDS011;904;47.814;11.134;2023-03-14T07:43:23;4.28;;;1.80;;
1811;SDS011;904;47.814;11.134;2023-03-14T07:45:50;2.63;;;1.52;;
1811;SDS011;904;47.814;11.134;2023-03-14T07:48:17;3.45;;;1.10;;
1811;SDS011;904;47.814;11.134;2023-03-14T07:50:49;1.73;;;0.80;;
1811;SDS011;904;47.814;11.134;2023-03-14T07:53:16;3.75;;;1.92;;
1811;SDS011;904;47.814;11.134;2023-03-14T07:55:43;2.05;;;1.00;;
1811;SDS011;904;47.814;11.134;2023-03-14T07:58:10;2.00;;;0.90;;
1811;SDS011;904;47.814;11.134;2023-03-14T08:00:37;2.05;;;1.00;;
1811;SDS011;904;47.814;11.134;2023-03-14T08:03:04;3.30;;;1.20;;
1811;SDS011;904;47.814;11.134;2023-03-14T08:05:33;2.42;;;1.00;;
1811;SDS011;904;47.814;11.134;2023-03-14T08:08:02;3.92;;;1.25;;
1811;SDS011;904;47.814;11.134;2023-03-14T08:10:30;2.72;;;1.48;;
1811;SDS011;904;47.814;11.134;2023-03-14T08:12:58;3.13;;;1.70;;
1811;SDS011;904;47.814;11.134;2023-03-14T08:15:26;2.42;;;1.33;;
1811;SDS011;904;47.814;11.134;2023-03-14T08:17:56;4.72;;;1.60;;
1811;SDS011;904;47.814;11.134;2023-03-14T08:20:23;4.80;;;2.03;;
1811;SDS011;904;47.814;11.134;2023-03-14T08:22:54;3.85;;;2.30;;
1811;SDS011;904;47.814;11.134;2023-03-14T08:25:24;6.75;;;3.83;;
1811;SDS011;904;47.814;11.134;2023-03-14T08:27:51;4.50;;;3.25;;
1811;SDS011;904;47.814;11.134;2023-03-14T08:30:19;3.63;;;2.40;;
1811;SDS011;904;47.814;11.134;2023-03-14T08:32:50;2.90;;;1.70;;
1811;SDS011;904;47.814;11.134;2023-03-14T08:35:17;2.80;;;1.70;;
1811;SDS011;904;47.814;11.134;2023-03-14T08:37:45;2.72;;;1.90;;
1811;SDS011;904;47.814;11.134;2023-03-14T08:40:12;3.00;;;1.65;;
1811;SDS011;904;47.814;11.134;2023-03-14T08:42:41;2.35;;;1.33;;
1811;SDS011;904;47.814;11.134;2023-03-14T08:45:10;3.28;;;1.15;;
1811;SDS011;904;47.814;11.134;2023-03-14T08:47:39;2.95;;;1.13;;
1811;SDS011;904;47.814;11.134;2023-03-14T08:50:06;4.05;;;1.48;;
1811;SDS011;904;47.814;11.134;2023-03-14T08:52:34;3.97;;;1.40;;
1811;SDS011;904;47.814;11.134;2023-03-14T08:55:02;2.35;;;1.08;;
1811;SDS011;904;47.814;11.134;2023-03-14T08:57:30;3.00;;;0.80;;
1811;SDS011;904;47.814;11.134;2023-03-14T08:59:59;1.90;;;0.70;;
1811;SDS011;904;47.814;11.134;2023-03-14T09:02:25;1.90;;;0.80;;
1811;SDS011;904;47.814;11.134;2023-03-14T09:04:53;2.22;;;0.90;;
1811;SDS011;904;47.814;11.134;2023-03-14T09:07:20;3.53;;;1.50;;
1811;SDS011;904;47.814;11.134;2023-03-14T09:09:47;3.13;;;1.85;;
1811;SDS011;904;47.814;11.134;2023-03-14T09:12:14;3.00;;;1.67;;
1811;SDS011;904;47.814;11.134;2023-03-14T09:14:41;2.67;;;1.48;;
1811;SDS011;904;47.814;11.134;2023-03-14T09:17:09;1.92;;;0.80;;
1811;SDS011;904;47.814;11.134;2023-03-14T09:19:36;1.83;;;1.00;;
1811;SDS011;904;47.814;11.134;2023-03-14T09:22:03;2.58;;;0.90;;
1811;SDS011;904;47.814;11.134;2023-03-14T09:24:30;2.75;;;1.33;;
1811;SDS011;904;47.814;11.134;2023-03-14T09:26:57;2.20;;;1.00;;
1811;SDS011;904;47.814;11.134;2023-03-14T09:29:24;2.22;;;0.90;;
1811;SDS011;904;47.814;11.134;2023-03-14T09:31:51;1.85;;;0.90;;
1811;SDS011;904;47.814;11.134;2023-03-14T09:34:19;1.80;;;0.75;;
1811;SDS011;904;47.814;11.134;2023-03-14T09:36:46;2.10;;;0.65;;
1811;SDS011;904;47.814;11.134;2023-03-14T09:39:13;2.10;;;0.90;;
1811;SDS011;904;47.814;11.134;2023-03-14T09:41:45;2.58;;;1.25;;
1811;SDS011;904;47.814;11.134;2023-03-14T09:44:15;2.40;;;1.00;;
1811;SDS011;904;47.814;11.134;2023-03-14T09:46:48;2.50;;;1.10;;
1811;SDS011;904;47.814;11.134;2023-03-14T09:49:21;1.80;;;0.80;;
1811;SDS011;904;47.814;11.134;2023-03-14T09:51:51;1.70;;;0.77;;
1811;SDS011;904;47.814;11.134;2023-03-14T09:54:27;1.73;;;0.80;;
1811;SDS011;904;47.814;11.134;2023-03-14T09:56:57;2.00;;;0.90;;
1811;SDS011;904;47.814;11.134;2023-03-14T09:59:25;2.00;;;0.87;;
1811;SDS011;904;47.814;11.134;2023-03-14T10:01:53;3.40;;;1.83;;
1811;SDS011;904;47.814;11.134;2023-03-14T10:04:22;2.30;;;1.20;;
1811;SDS011;904;47.814;11.134;2023-03-14T10:06:49;1.80;;;0.63;;
1811;SDS011;904;47.814;11.134;2023-03-14T10:09:17;1.87;;;1.00;;
1811;SDS011;904;47.814;11.134;2023-03-14T10:11:51;1.90;;;1.00;;
1811;SDS011;904;47.814;11.134;2023-03-14T10:14:28;2.90;;;1.43;;
1811;SDS011;904;47.814;11.134;2023-03-14T10:16:59;2.57;;;1.47;;
1811;SDS011;904;47.814;11.134;2023-03-14T10:19:34;1.90;;;0.70;;
1811;SDS011;904;47.814;11.134;2023-03-14T10:22:02;1.70;;;0.70;;
1811;SDS011;904;47.814;11.134;2023-03-14T10:24:31;5.33;;;0.80;;
1811;SDS011;904;47.814;11.134;2023-03-14T10:27:00;2.00;;;0.90;;
1811;SDS011;904;47.814;11.134;2023-03-14T10:29:28;2.30;;;0.80;;
1811;SDS011;904;47.814;11.134;2023-03-14T10:31:57;3.57;;;3.07;;
1811;SDS011;904;47.814;11.134;2023-03-14T10:34:27;5.23;;;2.50;;
1811;SDS011;904;47.814;11.134;2023-03-14T10:36:57;1.80;;;0.70;;
1811;SDS011;904;47.814;11.134;2023-03-14T10:39:40;3.07;;;0.80;;
1811;SDS011;904;47.814;11.134;2023-03-14T10:42:12;3.53;;;1.00;;
1811;SDS011;904;47.814;11.134;2023-03-14T10:44:44;2.60;;;1.03;;
1811;SDS011;904;47.814;11.134;2023-03-14T10:47:16;2.37;;;0.80;;
1811;SDS011;904;47.814;11.134;2023-03-14T10:49:48;3.77;;;2.67;;
1811;SDS011;904;47.814;11.134;2023-03-14T10:52:20;1.83;;;0.87;;
1811;SDS011;904;47.814;11.134;2023-03-14T10:54:49;2.90;;;1.00;;
1811;SDS011;904;47.814;11.134;2023-03-14T10:57:20;1.77;;;0.60;;
1811;SDS011;904;47.814;11.134;2023-03-14T10:59:47;3.20;;;1.80;;
1811;SDS011;904;47.814;11.134;2023-03-14T11:02:22;2.90;;;0.70;;
1811;SDS011;904;47.814;11.134;2023-03-14T11:05:16;5.40;;;2.37;;
1811;SDS011;904;47.814;11.134;2023-03-14T11:07:53;2.10;;;0.80;;
1811;SDS011;904;47.814;11.134;2023-03-14T11:10:30;1.60;;;0.50;;
1811;SDS011;904;47.814;11.134;2023-03-14T11:13:06;1.60;;;0.50;;
1811;SDS011;904;47.814;11.134;2023-03-14T11:15:41;2.27;;;0.57;;
1811;SDS011;904;47.814;11.134;2023-03-14T11:21:29;2.20;;;0.77;;
1811;SDS011;904;47.814;11.134;2023-03-14T11:24:08;2.80;;;1.50;;
1811;SDS011;904;47.814;11.134;2023-03-14T11:26:58;2.30;;;0.80;;
1811;SDS011;904;47.814;11.134;2023-03-14T11:29:32;1.50;;;0.53;;
1811;SDS011;904;47.814;11.134;2023-03-14T11:32:09;1.57;;;0.50;;
1811;SDS011;904;47.814;11.134;2023-03-14T11:34:39;2.10;;;0.87;;
1811;SDS011;904;47.814;11.134;2023-03-14T11:37:14;1.73;;;0.67;;
1811;SDS011;904;47.814;11.134;2023-03-14T11:39:51;2.17;;;0.97;;
1811;SDS011;904;47.814;11.134;2023-03-14T11:42:26;1.60;;;0.50;;
1811;SDS011;904;47.814;11.134;2023-03-14T11:44:54;1.60;;;0.50;;
1811;SDS011;904;47.814;11.134;2023-03-14T11:47:22;1.70;;;0.70;;
1811;SDS011;904;47.814;11.134;2023-03-14T11:49:56;1.60;;;0.60;;
1811;SDS011;904;47.814;11.134;2023-03-14T11:52:28;1.50;;;0.50;;
1811;SDS011;904;47.814;11.134;2023-03-14T11:55:02;1.63;;;0.73;;
1811;SDS011;904;47.814;11.134;2023-03-14T11:57:36;1.90;;;0.80;;
1811;SDS011;904;47.814;11.134;2023-03-14T12:00:06;1.77;;;0.67;;
1811;SDS011;904;47.814;11.134;2023-03-14T12:02:44;1.70;;;0.70;;
1811;SDS011;904;47.814;11.134;2023-03-14T12:05:23;2.27;;;0.60;;
1811;SDS011;904;47.814;11.134;2023-03-14T12:08:19;2.83;;;0.70;;
1811;SDS011;904;47.814;11.134;2023-03-14T12:11:00;1.80;;;0.70;;
1811;SDS011;904;47.814;11.134;2023-03-14T12:13:32;5.70;;;1.03;;
1811;SDS011;904;47.814;11.134;2023-03-14T12:16:04;1.77;;;0.80;;
1811;SDS011;904;47.814;11.134;2023-03-14T12:18:33;1.50;;;0.60;;
1811;SDS011;904;47.814;11.134;2023-03-14T12:21:04;6.00;;;1.60;;
1811;SDS011;904;47.814;11.134;2023-03-14T12:23:34;1.80;;;0.60;;
1811;SDS011;904;47.814;11.134;2023-03-14T12:26:07;1.90;;;0.83;;
1811;SDS011;904;47.814;11.134;2023-03-14T12:28:42;1.70;;;0.70;;
1811;SDS011;904;47.814;11.134;2023-03-14T12:34:03;1.70;;;0.70;;
1811;SDS011;904;47.814;11.134;2023-03-14T12:37:04;2.10;;;0.80;;
1811;SDS011;904;47.814;11.134;2023-03-14T12:39:40;1.60;;;0.63;;
1811;SDS011;904;47.814;11.134;2023-03-14T12:42:14;1.80;;;0.80;;
1811;SDS011;904;47.814;11.134;2023-03-14T12:44:48;1.70;;;0.70;;
1811;SDS011;904;47.814;11.134;2023-03-14T12:50:18;2.90;;;0.90;;
1811;SDS011;904;47.814;11.134;2023-03-14T12:55:57;1.70;;;0.80;;
1811;SDS011;904;47.814;11.134;2023-03-14T12:58:33;1.80;;;0.90;;
1811;SDS011;904;47.814;11.134;2023-03-14T13:01:04;5.53;;;1.17;;
1811;SDS011;904;47.814;11.134;2023-03-14T13:03:37;3.03;;;0.90;;
1811;SDS011;904;47.814;11.134;2023-03-14T13:06:08;3.00;;;0.70;;
1811;SDS011;904;47.814;11.134;2023-03-14T13:08:38;2.27;;;0.80;;
1811;SDS011;904;47.814;11.134;2023-03-14T13:11:09;1.80;;;0.70;;
1811;SDS011;904;47.814;11.134;2023-03-14T13:13:41;2.53;;;0.80;;
1811;SDS011;904;47.814;11.134;2023-03-14T13:16:13;1.60;;;0.70;;
1811;SDS011;904;47.814;11.134;2023-03-14T13:18:43;1.80;;;0.83;;
1811;SDS011;904;47.814;11.134;2023-03-14T13:21:12;1.60;;;0.60;;
1811;SDS011;904;47.814;11.134;2023-03-14T13:23:53;1.70;;;0.70;;
1811;SDS011;904;47.814;11.134;2023-03-14T13:26:25;2.77;;;1.10;;
1811;SDS011;904;47.814;11.134;2023-03-14T13:28:59;2.03;;;0.70;;
1811;SDS011;904;47.814;11.134;2023-03-14T13:31:34;1.93;;;0.70;;
1811;SDS011;904;47.814;11.134;2023-03-14T13:34:02;1.60;;;0.70;;
1811;SDS011;904;47.814;11.134;2023-03-14T13:36:33;4.80;;;0.73;;
1811;SDS011;904;47.814;11.134;2023-03-14T13:39:02;1.83;;;0.73;;
1811;SDS011;904;47.814;11.134;2023-03-14T13:41:36;1.90;;;0.80;;
1811;SDS011;904;47.814;11.134;2023-03-14T13:44:04;2.17;;;0.70;;
1811;SDS011;904;47.814;11.134;2023-03-14T13:46:34;3.78;;;0.90;;
1811;SDS011;904;47.814;11.134;2023-03-14T13:49:03;2.47;;;0.98;;
1811;SDS011;904;47.814;11.134;2023-03-14T13:51:31;1.98;;;0.80;;
1811;SDS011;904;47.814;11.134;2023-03-14T13:53:59;1.60;;;0.68;;
1811;SDS011;904;47.814;11.134;2023-03-14T13:56:29;1.60;;;0.67;;
1811;SDS011;904;47.814;11.134;2023-03-14T13:58:59;1.80;;;0.80;;
1811;SDS011;904;47.814;11.134;2023-03-14T14:01:27;3.42;;;1.75;;
1811;SDS011;904;47.814;11.134;2023-03-14T14:03:57;1.90;;;0.80;;
1811;SDS011;904;47.814;11.134;2023-03-14T14:06:34;2.22;;;0.90;;
1811;SDS011;904;47.814;11.134;2023-03-14T14:09:04;1.80;;;0.73;;
1811;SDS011;904;47.814;11.134;2023-03-14T14:11:41;1.70;;;0.70;;
1811;SDS011;904;47.814;11.134;2023-03-14T14:14:12;2.28;;;0.60;;
1811;SDS011;904;47.814;11.134;2023-03-14T14:16:44;1.80;;;0.70;;
1811;SDS011;904;47.814;11.134;2023-03-14T14:19:13;1.60;;;0.77;;
1811;SDS011;904;47.814;11.134;2023-03-14T14:21:41;1.65;;;0.70;;
1811;SDS011;904;47.814;11.134;2023-03-14T14:24:09;1.50;;;0.60;;
1811;SDS011;904;47.814;11.134;2023-03-14T14:26:40;1.70;;;0.60;;
1811;SDS011;904;47.814;11.134;2023-03-14T14:29:19;1.50;;;0.60;;
1811;SDS011;904;47.814;11.134;2023-03-14T14:31:58;2.45;;;0.90;;
1811;SDS011;904;47.814;11.134;2023-03-14T14:34:27;2.08;;;1.00;;
1811;SDS011;904;47.814;11.134;2023-03-14T14:37:04;1.50;;;0.60;;
1811;SDS011;904;47.814;11.134;2023-03-14T14:39:31;2.45;;;0.60;;
1811;SDS011;904;47.814;11.134;2023-03-14T14:41:58;1.80;;;0.80;;
1811;SDS011;904;47.814;11.134;2023-03-14T14:44:28;1.90;;;1.00;;
1811;SDS011;904;47.814;11.134;2023-03-14T14:46:56;1.60;;;0.70;;
1811;SDS011;904;47.814;11.134;2023-03-14T14:49:28;2.28;;;0.70;;
1811;SDS011;904;47.814;11.134;2023-03-14T14:52:00;1.70;;;0.80;;
1811;SDS011;904;47.814;11.134;2023-03-14T14:54:33;1.65;;;0.60;;
1811;SDS011;904;47.814;11.134;2023-03-14T14:57:04;2.35;;;0.75;;
1811;SDS011;904;47.814;11.134;2023-03-14T14:59:44;1.60;;;0.70;;
1811;SDS011;904;47.814;11.134;2023-03-14T15:02:24;1.92;;;0.80;;
1811;SDS011;904;47.814;11.134;2023-03-14T15:04:56;2.70;;;1.88;;
1811;SDS011;904;47.814;11.134;2023-03-14T15:07:23;1.67;;;0.75;;
1811;SDS011;904;47.814;11.134;2023-03-14T15:09:50;2.25;;;0.90;;
1811;SDS011;904;47.814;11.134;2023-03-14T15:12:19;1.92;;;0.88;;
1811;SDS011;904;47.814;11.134;2023-03-14T15:14:48;1.70;;;0.80;;
1811;SDS011;904;47.814;11.134;2023-03-14T15:17:15;2.47;;;1.17;;
1811;SDS011;904;47.814;11.134;2023-03-14T15:19:42;2.33;;;1.00;;
1811;SDS011;904;47.814;11.134;2023-03-14T15:22:11;2.85;;;1.13;;
1811;SDS011;904;47.814;11.134;2023-03-14T15:24:39;3.67;;;1.40;;
1811;SDS011;904;47.814;11.134;2023-03-14T15:27:10;2.33;;;1.23;;
1811;SDS011;904;47.814;11.134;2023-03-14T15:29:40;2.22;;;1.33;;
1811;SDS011;904;47.814;11.134;2023-03-14T15:32:11;1.92;;;0.90;;
1811;SDS011;904;47.814;11.134;2023-03-14T15:34:39;2.05;;;0.80;;
1811;SDS011;904;47.814;11.134;2023-03-14T15:37:08;2.17;;;0.90;;
1811;SDS011;904;47.814;11.134;2023-03-14T15:39:40;1.90;;;0.82;;
1811;SDS011;904;47.814;11.134;2023-03-14T15:42:08;1.90;;;0.77;;
1811;SDS011;904;47.814;11.134;2023-03-14T15:44:35;2.10;;;0.65;;
1811;SDS011;904;47.814;11.134;2023-03-14T15:47:02;1.70;;;0.75;;